Time;durP1;ratioP1;P1;durP2;ratioP2;P2;SDS_P1;SDS_P2;PMS_P1;PMS_P2;Temp;Humidity;BMP_temperature;BMP_pressure;BME280_temperature;BME280_humidity;BME280_pressure;Samples;Min_cycle;Max_cycle;Signal;HPM_P1;HPM_P2
2022/11/17 00:01:41;;;;;;;1.57;1.50;;;9.20;99.90;;;;;;4959449;28;20504;-67
2022/11/17 00:04:07;;;;;;;0.40;0.40;;;9.20;99.90;;;;;;4959312;28;20176;-69
2022/11/17 00:06:33;;;;;;;1.40;1.40;;;9.20;99.90;;;;;;4959292;28;20687;-69
2022/11/17 00:08:59;;;;;;;0.57;0.57;;;9.20;99.90;;;;;;4958768;28;20268;-68
2022/11/17 00:11:24;;;;;;;2.10;0.83;;;9.20;99.90;;;;;;4959584;28;20196;-68
2022/11/17 00:16:34;;;;;;;0.70;0.70;;;9.30;99.90;;;;;;4958875;29;20681;-68
2022/11/17 00:21:44;;;;;;;0.50;0.50;;;9.30;99.90;;;;;;4959033;29;20188;-70
2022/11/17 00:24:14;;;;;;;0.80;0.80;;;9.30;99.90;;;;;;4958667;28;20169;-68
2022/11/17 00:27:00;;;;;;;0.82;0.70;;;9.30;99.90;;;;;;4958987;28;20175;-69
2022/11/17 00:29:25;;;;;;;0.80;0.77;;;9.30;99.90;;;;;;4958142;29;20188;-70
2022/11/17 00:34:35;;;;;;;1.88;1.77;;;9.30;99.90;;;;;;4958431;28;20585;-66
2022/11/17 00:37:01;;;;;;;0.73;0.73;;;9.30;99.90;;;;;;4958829;28;20252;-67
2022/11/17 00:39:27;;;;;;;0.52;0.52;;;9.30;99.90;;;;;;4958266;28;20162;-69
2022/11/17 00:41:52;;;;;;;1.00;1.00;;;9.20;99.90;;;;;;4958461;28;20177;-70
2022/11/17 00:44:18;;;;;;;1.67;1.17;;;9.20;99.90;;;;;;4958085;28;20662;-69
2022/11/17 00:46:44;;;;;;;1.23;1.17;;;9.20;99.90;;;;;;4957213;29;20269;-67
2022/11/17 00:49:10;;;;;;;0.77;0.77;;;9.30;99.90;;;;;;4958112;28;20181;-67
2022/11/17 00:51:36;;;;;;;0.40;0.40;;;9.40;99.90;;;;;;4958433;28;20178;-68
2022/11/17 00:54:04;;;;;;;1.17;1.08;;;9.30;99.90;;;;;;4958391;28;20568;-70
2022/11/17 00:56:29;;;;;;;0.77;0.77;;;9.30;99.90;;;;;;4957896;28;20166;-69
2022/11/17 00:58:55;;;;;;;1.47;1.40;;;9.40;99.90;;;;;;4957671;28;20541;-67
2022/11/17 01:01:21;;;;;;;0.30;0.30;;;9.40;99.90;;;;;;4958046;28;20615;-67
2022/11/17 01:03:47;;;;;;;0.38;0.38;;;9.40;99.90;;;;;;4957561;28;20409;-69
2022/11/17 01:06:15;;;;;;;0.63;0.63;;;9.30;99.90;;;;;;4958931;28;20193;-69
2022/11/17 01:08:42;;;;;;;2.65;1.58;;;9.20;99.90;;;;;;4957560;28;20180;-68
2022/11/17 01:11:16;;;;;;;2.25;2.10;;;9.20;99.90;;;;;;4958171;28;20204;-68
2022/11/17 01:13:43;;;;;;;0.35;0.35;;;9.20;99.90;;;;;;4957830;28;20531;-67
2022/11/17 01:16:12;;;;;;;0.40;0.40;;;9.20;99.90;;;;;;4957422;28;20212;-70
2022/11/17 01:18:38;;;;;;;0.30;0.30;;;9.20;99.90;;;;;;4957840;28;20260;-67
2022/11/17 01:21:19;;;;;;;3.83;1.27;;;9.10;99.90;;;;;;4957960;28;20185;-69
2022/11/17 01:23:46;;;;;;;0.40;0.40;;;9.10;99.90;;;;;;4957283;28;20533;-69
2022/11/17 01:26:14;;;;;;;0.63;0.63;;;9.10;99.90;;;;;;4957334;28;20201;-69
2022/11/17 01:28:41;;;;;;;0.30;0.30;;;9.20;99.90;;;;;;4957131;28;20267;-67
2022/11/17 01:31:10;;;;;;;0.82;0.82;;;9.20;99.90;;;;;;4957353;28;20181;-67
2022/11/17 01:33:35;;;;;;;0.50;0.50;;;9.10;99.90;;;;;;4957592;28;20265;-68
2022/11/17 01:36:03;;;;;;;0.40;0.40;;;9.00;99.90;;;;;;4957137;28;20271;-69
2022/11/17 01:38:30;;;;;;;0.70;0.70;;;9.00;99.90;;;;;;4957378;28;20792;-68
2022/11/17 01:40:57;;;;;;;0.30;0.30;;;9.10;99.90;;;;;;4956906;28;20173;-69
2022/11/17 01:43:53;;;;;;;0.50;0.50;;;9.10;99.90;;;;;;4957425;28;20564;-69
2022/11/17 01:46:36;;;;;;;0.40;0.40;;;9.00;99.90;;;;;;4956355;29;20169;-68
2022/11/17 01:49:11;;;;;;;0.73;0.73;;;9.10;99.90;;;;;;4956918;28;20174;-67
2022/11/17 01:51:42;;;;;;;0.30;0.30;;;9.20;99.90;;;;;;4956982;28;20177;-69
2022/11/17 01:54:10;;;;;;;0.73;0.73;;;9.30;99.90;;;;;;4957087;28;20223;-68
2022/11/17 01:56:41;;;;;;;0.30;0.30;;;9.30;99.90;;;;;;4957360;28;20673;-69
2022/11/17 01:59:27;;;;;;;0.50;0.50;;;9.30;99.90;;;;;;4955194;29;20239;-69
2022/11/17 02:01:54;;;;;;;0.93;0.93;;;9.40;99.90;;;;;;4956592;29;20196;-69
2022/11/17 02:04:35;;;;;;;0.52;0.52;;;9.40;99.90;;;;;;4956846;28;20674;-69
2022/11/17 02:07:24;;;;;;;0.82;0.55;;;9.40;99.90;;;;;;4956936;28;20232;-67
2022/11/17 02:09:51;;;;;;;1.17;0.45;;;9.40;99.90;;;;;;4956539;28;20169;-68
2022/11/17 02:12:18;;;;;;;0.40;0.40;;;9.40;99.90;;;;;;4956753;28;20177;-69
2022/11/17 02:14:44;;;;;;;0.30;0.30;;;9.40;99.90;;;;;;4956059;28;20724;-70
2022/11/17 02:17:10;;;;;;;0.55;0.45;;;9.40;99.90;;;;;;4956289;28;20654;-69
2022/11/17 02:19:39;;;;;;;0.52;0.43;;;9.40;99.90;;;;;;4956337;28;20655;-67
2022/11/17 02:23:02;;;;;;;0.40;0.40;;;9.40;99.90;;;;;;4956367;28;20216;-67
2022/11/17 02:25:34;;;;;;;0.30;0.30;;;9.40;99.90;;;;;;4880612;29;20210;-68
2022/11/17 02:28:20;;;;;;;1.80;1.02;;;9.40;99.90;;;;;;4955386;28;20203;-68
2022/11/17 02:31:17;;;;;;;0.77;0.77;;;9.40;99.90;;;;;;4956334;28;20667;-66
2022/11/17 02:34:03;;;;;;;1.90;1.83;;;9.40;99.90;;;;;;4956521;29;20181;-69
2022/11/17 02:36:50;;;;;;;0.47;0.47;;;9.40;99.90;;;;;;4956384;29;20170;-68
2022/11/17 02:39:30;;;;;;;0.30;0.30;;;9.50;99.90;;;;;;4955976;28;20249;-67
2022/11/17 02:44:02;;;;;;;0.63;0.63;;;9.50;99.90;;;;;;4956490;28;20180;-68
2022/11/17 02:45:18;;;;;;;0.40;0.40;;;9.60;99.90;;;;;;4955903;28;20198;-69
2022/11/17 02:47:47;;;;;;;0.40;0.40;;;9.60;99.90;;;;;;4956063;28;20185;-71
2022/11/17 02:50:13;;;;;;;0.40;0.40;;;9.70;99.90;;;;;;4955733;28;20567;-69
2022/11/17 02:52:39;;;;;;;0.45;0.43;;;9.60;99.90;;;;;;4956339;28;20202;-70
2022/11/17 02:55:08;;;;;;;0.40;0.40;;;9.60;99.90;;;;;;4956098;28;20746;-69
2022/11/17 02:57:36;;;;;;;0.30;0.30;;;9.60;99.90;;;;;;4955843;28;20405;-69
2022/11/17 03:00:15;;;;;;;0.88;0.80;;;9.60;99.90;;;;;;4955755;28;20252;-69
2022/11/17 03:03:09;;;;;;;1.02;0.65;;;9.50;99.90;;;;;;4956081;28;20184;-68
2022/11/17 03:05:56;;;;;;;0.40;0.40;;;9.50;99.90;;;;;;4955678;28;20272;-67
2022/11/17 03:08:28;;;;;;;0.60;0.60;;;9.60;99.90;;;;;;4956030;28;20201;-68
2022/11/17 03:11:01;;;;;;;0.60;0.60;;;9.60;99.90;;;;;;4955821;28;20196;-68
2022/11/17 03:14:02;;;;;;;0.40;0.40;;;9.60;99.90;;;;;;4955963;28;20536;-68
2022/11/17 03:16:39;;;;;;;0.35;0.35;;;9.50;99.90;;;;;;4955793;28;20196;-68
2022/11/17 03:19:11;;;;;;;0.40;0.40;;;9.50;99.90;;;;;;4955491;28;20540;-69
2022/11/17 03:21:43;;;;;;;0.60;0.60;;;9.50;99.90;;;;;;4956001;28;20276;-68
2022/11/17 03:24:24;;;;;;;0.63;0.63;;;9.60;99.90;;;;;;4956041;28;20570;-67
2022/11/17 03:26:54;;;;;;;0.40;0.40;;;9.60;99.90;;;;;;4957972;28;20252;-69
2022/11/17 03:29:23;;;;;;;0.40;0.40;;;9.60;99.90;;;;;;4959457;28;20188;-70
2022/11/17 03:31:54;;;;;;;0.40;0.40;;;9.60;99.90;;;;;;4959876;28;20630;-70
2022/11/17 03:34:23;;;;;;;0.70;0.70;;;9.60;99.90;;;;;;4959701;28;20698;-68
2022/11/17 03:36:54;;;;;;;1.55;1.45;;;9.50;99.90;;;;;;4959291;28;20165;-68
2022/11/17 03:39:26;;;;;;;0.88;0.88;;;9.60;99.90;;;;;;4959253;28;20169;-68
2022/11/17 03:41:57;;;;;;;0.70;0.70;;;9.60;99.90;;;;;;4959544;28;20165;-69
2022/11/17 03:44:25;;;;;;;0.82;0.75;;;9.60;99.90;;;;;;4959452;28;20205;-67
2022/11/17 03:46:54;;;;;;;0.30;0.30;;;9.50;99.90;;;;;;4959728;28;20178;-69
2022/11/17 03:49:49;;;;;;;0.40;0.40;;;9.50;99.90;;;;;;4958953;28;20244;-68
2022/11/17 03:52:15;;;;;;;0.30;0.30;;;9.40;99.90;;;;;;4958725;29;20200;-69
2022/11/17 03:54:40;;;;;;;0.40;0.40;;;9.50;99.90;;;;;;4959112;28;20299;-66
2022/11/17 03:57:18;;;;;;;2.00;0.57;;;9.40;99.90;;;;;;4959536;28;20268;-69
2022/11/17 03:59:53;;;;;;;0.60;0.60;;;9.50;99.90;;;;;;4958844;28;20455;-67
2022/11/17 04:02:20;;;;;;;0.50;0.50;;;9.40;99.90;;;;;;4958942;28;20184;-67
2022/11/17 04:05:04;;;;;;;0.50;0.50;;;9.30;99.90;;;;;;4958720;28;20278;-68
2022/11/17 04:07:39;;;;;;;0.30;0.30;;;9.40;99.90;;;;;;4959312;28;20157;-66
2022/11/17 04:10:06;;;;;;;0.60;0.60;;;9.40;99.90;;;;;;4958673;28;20182;-69
2022/11/17 04:18:18;;;;;;;0.50;0.50;;;9.50;99.90;;;;;;4956566;29;20181;-67
2022/11/17 04:20:44;;;;;;;0.43;0.43;;;9.50;99.90;;;;;;4957882;28;20186;-69
2022/11/17 04:23:13;;;;;;;0.82;0.80;;;9.60;99.90;;;;;;4958636;28;20514;-67
2022/11/17 04:28:36;;;;;;;0.40;0.40;;;9.60;99.90;;;;;;4959239;29;20546;-69
2022/11/17 04:31:06;;;;;;;0.40;0.40;;;9.70;99.90;;;;;;4958726;28;20174;-68
2022/11/17 04:33:32;;;;;;;0.30;0.30;;;9.70;99.90;;;;;;4957186;29;20201;-69
2022/11/17 04:35:57;;;;;;;0.30;0.30;;;9.70;99.90;;;;;;4958457;28;20292;-67
2022/11/17 04:38:23;;;;;;;0.30;0.30;;;9.70;99.90;;;;;;4958383;28;21015;-68
2022/11/17 04:43:33;;;;;;;0.40;0.40;;;9.80;99.90;;;;;;4958170;29;20180;-67
2022/11/17 04:46:01;;;;;;;0.30;0.30;;;9.90;99.90;;;;;;4958195;28;20205;-67
2022/11/17 04:48:27;;;;;;;0.30;0.30;;;9.70;99.90;;;;;;4958270;28;20684;-69
2022/11/17 04:50:54;;;;;;;0.30;0.30;;;9.70;99.90;;;;;;4958207;28;20185;-69
2022/11/17 04:53:20;;;;;;;0.30;0.30;;;9.70;99.90;;;;;;4958474;28;20232;-66
2022/11/17 04:55:46;;;;;;;0.52;0.52;;;9.70;99.90;;;;;;4957860;28;20604;-70
2022/11/17 04:58:11;;;;;;;0.40;0.40;;;9.80;99.90;;;;;;4957774;28;20213;-67
2022/11/17 05:00:37;;;;;;;0.40;0.40;;;9.90;99.90;;;;;;4957607;28;20261;-69
2022/11/17 05:03:03;;;;;;;0.30;0.30;;;9.90;99.90;;;;;;4958038;28;20181;-73
2022/11/17 05:05:29;;;;;;;0.40;0.40;;;10.00;99.90;;;;;;4956859;28;20257;-70
2022/11/17 05:07:54;;;;;;;0.40;0.40;;;10.30;99.90;;;;;;4958161;28;20439;-68
2022/11/17 05:13:20;;;;;;;0.40;0.40;;;10.40;99.90;;;;;;4957494;28;20169;-67
2022/11/17 05:13:26;;;;;;;0.52;0.52;;;10.40;99.90;;;;;;4957714;29;20189;-63
2022/11/17 05:18:42;;;;;;;0.30;0.30;;;10.90;99.90;;;;;;4957907;28;20202;-69
2022/11/17 05:21:10;;;;;;;1.05;1.05;;;11.30;99.90;;;;;;4957496;28;20205;-68
2022/11/17 05:23:54;;;;;;;0.30;0.30;;;11.20;99.90;;;;;;4957565;28;20186;-68
2022/11/17 05:26:23;;;;;;;0.30;0.30;;;10.90;99.90;;;;;;4957930;28;20161;-67
2022/11/17 05:28:49;;;;;;;0.50;0.50;;;10.70;99.90;;;;;;4957576;28;20173;-67
2022/11/17 05:31:15;;;;;;;0.30;0.30;;;10.60;99.90;;;;;;4957873;28;20180;-66
2022/11/17 05:33:41;;;;;;;1.50;0.88;;;10.50;99.90;;;;;;4955984;29;20417;-68
2022/11/17 05:36:08;;;;;;;0.30;0.30;;;10.20;99.90;;;;;;4957288;28;20209;-68
2022/11/17 05:38:34;;;;;;;0.30;0.30;;;10.20;99.90;;;;;;4956941;28;20178;-67
2022/11/17 05:40:59;;;;;;;0.40;0.40;;;10.20;99.90;;;;;;4957569;28;20184;-68
2022/11/17 05:43:25;;;;;;;0.30;0.30;;;10.30;99.90;;;;;;4957624;28;20180;-68
2022/11/17 05:45:52;;;;;;;0.30;0.30;;;10.40;99.90;;;;;;4957524;28;20437;-66
2022/11/17 05:48:18;;;;;;;0.30;0.30;;;10.40;99.90;;;;;;4956201;28;20409;-67
2022/11/17 05:50:44;;;;;;;0.30;0.30;;;10.50;99.90;;;;;;4956845;28;20182;-68
2022/11/17 05:53:10;;;;;;;0.40;0.40;;;10.50;99.90;;;;;;4957255;28;20174;-71
2022/11/17 05:55:35;;;;;;;0.30;0.30;;;10.40;99.90;;;;;;4956915;28;20280;-67
2022/11/17 05:58:07;;;;;;;1.17;1.07;;;10.30;99.90;;;;;;4955930;28;20166;-70
2022/11/17 06:00:35;;;;;;;0.30;0.30;;;10.30;99.90;;;;;;4956236;28;20189;-69
2022/11/17 06:03:06;;;;;;;1.95;0.85;;;10.40;99.90;;;;;;4955617;28;20180;-67
2022/11/17 06:05:32;;;;;;;0.73;0.73;;;10.70;99.90;;;;;;4956897;28;20193;-70
2022/11/17 06:07:58;;;;;;;0.87;0.70;;;11.30;99.90;;;;;;4956921;28;20188;-67
2022/11/17 06:10:25;;;;;;;0.30;0.30;;;11.90;99.90;;;;;;4956255;28;20753;-67
2022/11/17 06:12:51;;;;;;;0.30;0.30;;;12.60;99.90;;;;;;4957076;28;20417;-67
2022/11/17 06:15:17;;;;;;;0.30;0.30;;;13.10;99.90;;;;;;4956421;28;20834;-67
2022/11/17 06:17:57;;;;;;;0.57;0.57;;;13.60;99.90;;;;;;4956496;28;20617;-67
2022/11/17 06:20:32;;;;;;;0.60;0.60;;;14.00;99.90;;;;;;4956352;28;20169;-68
2022/11/17 06:23:02;;;;;;;2.43;1.07;;;14.20;98.60;;;;;;4956715;28;20412;-68
2022/11/17 06:25:29;;;;;;;0.33;0.33;;;13.90;97.20;;;;;;4956785;28;20433;-69
2022/11/17 06:27:56;;;;;;;0.30;0.30;;;13.40;97.30;;;;;;4956409;28;20891;-69
2022/11/17 06:30:22;;;;;;;0.60;0.60;;;12.90;97.90;;;;;;4956213;28;20409;-70
2022/11/17 06:32:48;;;;;;;0.30;0.30;;;12.50;98.50;;;;;;4956422;28;20418;-67
2022/11/17 06:35:15;;;;;;;0.40;0.40;;;12.20;99.00;;;;;;4956001;28;20344;-67
2022/11/17 06:37:41;;;;;;;0.30;0.30;;;11.90;99.60;;;;;;4956621;28;20448;-70
2022/11/17 06:40:08;;;;;;;0.40;0.40;;;11.70;99.90;;;;;;4955828;28;20630;-68
2022/11/17 06:45:21;;;;;;;0.30;0.30;;;11.40;99.90;;;;;;4955728;28;20205;-70
2022/11/17 06:47:47;;;;;;;0.40;0.40;;;11.30;99.90;;;;;;4956386;28;20187;-68
2022/11/17 06:50:13;;;;;;;0.30;0.30;;;11.20;99.90;;;;;;4955394;28;20456;-69
2022/11/17 06:52:38;;;;;;;0.30;0.30;;;11.10;99.90;;;;;;4955913;28;20252;-67
2022/11/17 06:55:05;;;;;;;1.43;0.40;;;11.10;99.90;;;;;;4956085;28;20284;-66
2022/11/17 06:57:30;;;;;;;0.30;0.30;;;11.10;99.90;;;;;;4955976;28;20179;-66
2022/11/17 06:59:56;;;;;;;0.40;0.40;;;11.10;99.90;;;;;;4955599;28;20174;-69
2022/11/17 07:02:22;;;;;;;0.30;0.30;;;11.10;99.90;;;;;;4956214;28;20162;-68
2022/11/17 07:04:47;;;;;;;0.30;0.30;;;11.20;99.90;;;;;;4955833;28;20205;-69
2022/11/17 07:07:13;;;;;;;0.30;0.30;;;11.20;99.90;;;;;;4955648;28;20180;-70
2022/11/17 07:09:38;;;;;;;0.30;0.30;;;11.20;99.90;;;;;;4955708;28;20252;-69
2022/11/17 07:12:04;;;;;;;0.30;0.30;;;11.20;99.90;;;;;;4955919;28;20173;-69
2022/11/17 07:14:30;;;;;;;0.30;0.30;;;11.30;99.90;;;;;;4955456;28;20212;-67
2022/11/17 07:16:56;;;;;;;0.30;0.30;;;11.30;99.90;;;;;;4955504;28;20188;-69
2022/11/17 07:19:21;;;;;;;0.30;0.30;;;11.20;99.90;;;;;;4955639;28;20401;-67
2022/11/17 07:21:47;;;;;;;0.30;0.30;;;11.20;99.90;;;;;;4955907;28;20165;-69
2022/11/17 07:24:12;;;;;;;0.50;0.50;;;11.20;99.90;;;;;;4955490;28;20181;-68
2022/11/17 07:26:38;;;;;;;0.40;0.40;;;11.10;99.90;;;;;;4955870;28;20173;-67
2022/11/17 07:29:04;;;;;;;0.30;0.30;;;11.00;99.90;;;;;;4955409;28;20201;-69
2022/11/17 07:31:30;;;;;;;0.50;0.50;;;11.00;99.90;;;;;;4955925;28;20170;-69
2022/11/17 07:33:57;;;;;;;0.30;0.30;;;11.10;99.90;;;;;;4955170;28;20527;-68
2022/11/17 07:36:23;;;;;;;0.30;0.30;;;11.00;99.90;;;;;;4955306;29;20177;-67
2022/11/17 07:38:48;;;;;;;0.60;0.60;;;11.00;99.90;;;;;;4955190;28;20174;-69
2022/11/17 07:41:14;;;;;;;1.67;1.57;;;11.00;99.90;;;;;;4955378;28;20535;-69
2022/11/17 07:43:40;;;;;;;0.40;0.40;;;11.00;99.90;;;;;;4955607;28;20309;-68
2022/11/17 07:46:13;;;;;;;0.30;0.30;;;11.00;99.90;;;;;;4955689;28;20236;-69
2022/11/17 07:48:40;;;;;;;0.30;0.30;;;11.00;99.90;;;;;;4955691;28;20249;-70
2022/11/17 07:51:06;;;;;;;0.30;0.30;;;11.00;99.90;;;;;;4954339;28;20321;-70
2022/11/17 07:53:34;;;;;;;0.30;0.30;;;11.00;99.90;;;;;;4954575;28;20253;-67
2022/11/17 07:56:10;;;;;;;0.30;0.30;;;11.00;99.90;;;;;;4953299;28;20213;-67
2022/11/17 07:58:36;;;;;;;0.30;0.30;;;11.00;99.90;;;;;;4955398;28;20165;-68
2022/11/17 08:01:07;;;;;;;0.30;0.30;;;10.80;99.90;;;;;;4955159;28;20201;-67
2022/11/17 08:03:33;;;;;;;0.30;0.30;;;10.80;99.90;;;;;;4955589;28;20531;-70
2022/11/17 08:06:05;;;;;;;0.30;0.30;;;10.80;99.90;;;;;;4955990;28;20204;-69
2022/11/17 08:08:32;;;;;;;0.38;0.38;;;10.70;99.90;;;;;;4955429;28;20170;-69
2022/11/17 08:11:09;;;;;;;0.50;0.50;;;10.60;99.90;;;;;;4955477;28;20174;-67
2022/11/17 08:13:35;;;;;;;0.30;0.30;;;10.20;99.90;;;;;;4958863;28;20608;-67
2022/11/17 08:16:01;;;;;;;0.40;0.40;;;10.20;99.90;;;;;;4958043;28;20217;-68
2022/11/17 08:18:28;;;;;;;0.50;0.50;;;10.30;99.90;;;;;;4957437;29;20174;-67
2022/11/17 08:21:02;;;;;;;0.30;0.30;;;10.40;99.90;;;;;;4958458;28;20421;-67
2022/11/17 08:23:28;;;;;;;0.40;0.40;;;10.50;99.90;;;;;;4958900;28;20180;-66
2022/11/17 08:25:53;;;;;;;0.30;0.30;;;10.50;99.90;;;;;;4958877;28;20193;-67
2022/11/17 08:28:19;;;;;;;0.57;0.57;;;10.40;99.90;;;;;;4958967;28;20230;-67
2022/11/17 08:30:45;;;;;;;0.80;0.80;;;10.40;99.90;;;;;;4958081;28;20178;-67
2022/11/17 08:33:10;;;;;;;0.40;0.40;;;10.40;99.90;;;;;;4958123;28;20205;-69
2022/11/17 08:35:36;;;;;;;0.33;0.33;;;10.20;99.90;;;;;;4958479;28;20284;-69
2022/11/17 08:38:02;;;;;;;0.33;0.33;;;10.20;99.90;;;;;;4958143;28;20202;-68
2022/11/17 08:40:27;;;;;;;0.30;0.30;;;10.20;99.90;;;;;;4957927;28;20174;-68
2022/11/17 08:42:53;;;;;;;0.30;0.30;;;10.30;99.90;;;;;;4956954;29;20182;-68
2022/11/17 08:45:19;;;;;;;0.30;0.30;;;10.00;99.90;;;;;;4957963;28;20196;-67
2022/11/17 08:47:45;;;;;;;0.30;0.30;;;10.00;99.90;;;;;;4958124;28;20484;-68
2022/11/17 08:50:11;;;;;;;0.40;0.40;;;9.80;99.90;;;;;;4957476;28;20771;-67
2022/11/17 08:52:36;;;;;;;0.30;0.30;;;9.90;99.90;;;;;;4958378;28;20711;-68
2022/11/17 08:55:04;;;;;;;0.30;0.30;;;10.00;99.90;;;;;;4957872;28;20233;-67
2022/11/17 08:57:30;;;;;;;0.40;0.40;;;10.00;99.90;;;;;;4958469;28;20244;-67
2022/11/17 08:59:56;;;;;;;0.32;0.32;;;10.10;99.90;;;;;;4957762;28;20563;-67
2022/11/17 09:02:22;;;;;;;0.50;0.50;;;10.00;99.90;;;;;;4956074;29;20173;-69
2022/11/17 09:04:49;;;;;;;0.40;0.40;;;10.00;99.90;;;;;;4956480;28;20450;-68
2022/11/17 09:07:15;;;;;;;0.40;0.40;;;9.80;99.90;;;;;;4958304;28;20197;-69
2022/11/17 09:09:40;;;;;;;0.30;0.30;;;9.70;99.90;;;;;;4957568;28;20209;-69
2022/11/17 09:12:07;;;;;;;0.40;0.40;;;9.60;99.90;;;;;;4958209;28;20639;-68
2022/11/17 09:14:32;;;;;;;0.30;0.30;;;9.70;99.90;;;;;;4957539;28;20209;-70
2022/11/17 09:16:58;;;;;;;0.50;0.50;;;9.70;99.90;;;;;;4957123;28;20185;-70
2022/11/17 09:19:24;;;;;;;0.50;0.50;;;9.80;99.90;;;;;;4957049;28;20413;-68
2022/11/17 09:21:54;;;;;;;0.30;0.30;;;9.90;99.90;;;;;;4957899;28;20507;-68
2022/11/17 09:24:27;;;;;;;0.30;0.30;;;9.90;99.90;;;;;;4956419;28;20432;-70
2022/11/17 09:26:56;;;;;;;0.50;0.50;;;10.10;99.90;;;;;;4957565;28;20239;-69
2022/11/17 09:29:21;;;;;;;0.40;0.40;;;10.70;99.90;;;;;;4957127;28;20203;-70
2022/11/17 09:31:47;;;;;;;0.40;0.40;;;11.00;99.90;;;;;;4957532;28;20201;-69
2022/11/17 09:34:13;;;;;;;0.70;0.70;;;11.30;99.90;;;;;;4957321;28;20574;-69
2022/11/17 09:36:38;;;;;;;0.40;0.40;;;11.70;99.90;;;;;;4957545;28;20177;-68
2022/11/17 09:39:04;;;;;;;0.30;0.30;;;11.90;99.90;;;;;;4957383;28;20173;-70
2022/11/17 09:41:37;;;;;;;0.70;0.40;;;11.90;99.10;;;;;;4956963;28;20169;-68
2022/11/17 09:44:25;;;;;;;0.40;0.40;;;11.60;98.60;;;;;;4957008;28;20209;-70
2022/11/17 09:46:56;;;;;;;0.40;0.40;;;11.20;98.90;;;;;;4957277;28;20779;-67
2022/11/17 09:49:22;;;;;;;0.30;0.30;;;10.90;99.20;;;;;;4956496;28;20227;-69
2022/11/17 09:51:49;;;;;;;0.30;0.30;;;11.00;99.70;;;;;;4957058;28;20261;-69
2022/11/17 09:54:56;;;;;;;0.85;0.85;;;11.30;99.90;;;;;;4956515;28;20264;-68
2022/11/17 09:57:37;;;;;;;0.30;0.30;;;11.50;99.20;;;;;;4957229;28;20164;-69
2022/11/17 10:00:13;;;;;;;0.30;0.30;;;11.50;99.60;;;;;;4956835;28;20193;-69
2022/11/17 10:02:39;;;;;;;0.30;0.30;;;11.60;99.80;;;;;;4956724;28;20170;-70
2022/11/17 10:05:10;;;;;;;0.30;0.30;;;11.80;99.20;;;;;;4956430;28;20201;-70
2022/11/17 10:07:49;;;;;;;0.30;0.30;;;12.30;99.40;;;;;;4956423;28;20411;-70
2022/11/17 10:10:47;;;;;;;0.40;0.40;;;13.20;98.00;;;;;;4956000;28;20416;-69
2022/11/17 10:13:31;;;;;;;0.40;0.40;;;14.10;96.40;;;;;;4943346;28;21018;-71
2022/11/17 10:16:06;;;;;;;0.33;0.33;;;14.90;94.90;;;;;;4955770;28;20468;-70
2022/11/17 10:18:35;;;;;;;0.30;0.30;;;14.60;93.30;;;;;;4955788;28;20465;-69
2022/11/17 10:21:02;;;;;;;0.60;0.60;;;14.70;94.30;;;;;;4956286;28;20429;-68
2022/11/17 10:23:37;;;;;;;0.40;0.40;;;14.80;93.80;;;;;;4956279;28;20402;-71
2022/11/17 10:26:12;;;;;;;0.50;0.50;;;14.80;94.90;;;;;;4956800;28;20428;-71
2022/11/17 10:28:38;;;;;;;0.40;0.40;;;14.70;93.60;;;;;;4956514;28;20894;-70
2022/11/17 10:31:11;;;;;;;1.03;0.67;;;14.50;94.20;;;;;;4956651;28;20484;-69
2022/11/17 10:33:46;;;;;;;0.63;0.40;;;14.30;94.40;;;;;;4956354;28;20405;-69
2022/11/17 10:36:32;;;;;;;1.83;1.73;;;14.00;93.70;;;;;;4955540;28;20539;-69
2022/11/17 10:38:59;;;;;;;0.77;0.77;;;13.80;93.90;;;;;;4955931;28;20476;-71
2022/11/17 10:41:36;;;;;;;0.40;0.40;;;13.70;94.40;;;;;;4956428;28;20417;-71
2022/11/17 10:44:21;;;;;;;0.40;0.40;;;13.70;94.30;;;;;;4956185;28;20409;-70
2022/11/17 10:47:03;;;;;;;2.20;1.03;;;13.60;94.20;;;;;;4956303;28;20821;-71
2022/11/17 10:49:33;;;;;;;0.40;0.40;;;13.40;94.70;;;;;;4955896;28;20464;-70
2022/11/17 10:52:16;;;;;;;1.03;0.57;;;13.50;94.60;;;;;;4956475;28;20456;-70
2022/11/17 10:54:48;;;;;;;0.40;0.40;;;13.60;94.70;;;;;;4955949;28;20456;-70
2022/11/17 10:57:18;;;;;;;1.60;1.47;;;13.60;94.40;;;;;;4956161;28;20916;-71
2022/11/17 10:59:58;;;;;;;0.40;0.40;;;13.50;94.50;;;;;;4955593;28;20460;-69
2022/11/17 11:02:34;;;;;;;0.30;0.30;;;13.40;94.90;;;;;;4955019;29;20420;-69
2022/11/17 11:05:10;;;;;;;0.90;0.90;;;13.30;95.00;;;;;;4955323;28;20434;-70
2022/11/17 11:07:36;;;;;;;12.33;1.23;;;13.10;95.50;;;;;;4954966;28;20860;-68
2022/11/17 11:10:30;;;;;;;0.63;0.63;;;13.00;94.80;;;;;;4954439;28;20454;-70
2022/11/17 11:13:15;;;;;;;1.07;0.80;;;13.10;95.40;;;;;;4955685;28;20408;-69
2022/11/17 11:15:41;;;;;;;0.43;0.43;;;13.10;94.50;;;;;;4955551;28;20520;-70
2022/11/17 11:18:17;;;;;;;0.30;0.30;;;13.10;94.10;;;;;;4956093;28;20414;-70
2022/11/17 11:21:07;;;;;;;0.50;0.47;;;13.00;93.90;;;;;;4955849;28;20427;-69
2022/11/17 11:24:09;;;;;;;0.40;0.40;;;12.80;94.10;;;;;;4955472;29;20418;-70
2022/11/17 11:26:55;;;;;;;0.50;0.50;;;12.90;95.20;;;;;;4928375;28;20412;-69
2022/11/17 11:29:49;;;;;;;0.30;0.30;;;12.90;95.40;;;;;;4955258;28;20494;-68
2022/11/17 11:32:24;;;;;;;0.80;0.80;;;13.10;95.00;;;;;;4948615;29;20449;-70
2022/11/17 11:35:11;;;;;;;0.30;0.30;;;13.30;95.80;;;;;;4955506;28;20506;-68
2022/11/17 11:37:47;;;;;;;1.80;0.87;;;13.60;94.30;;;;;;4955924;29;20389;-69
2022/11/17 11:40:36;;;;;;;0.30;0.30;;;13.70;92.90;;;;;;4955299;28;20500;-70
2022/11/17 11:43:41;;;;;;;0.40;0.40;;;13.70;93.10;;;;;;4955618;28;20411;-68
2022/11/17 11:46:22;;;;;;;1.07;0.60;;;13.50;93.60;;;;;;4955340;28;20428;-69
2022/11/17 11:48:52;;;;;;;0.30;0.30;;;13.40;93.90;;;;;;4958958;28;20407;-69
2022/11/17 11:51:23;;;;;;;2.20;1.33;;;13.20;94.30;;;;;;4959515;28;20405;-69
2022/11/17 11:54:08;;;;;;;0.60;0.60;;;13.10;95.50;;;;;;4959412;28;20913;-70
2022/11/17 11:56:37;;;;;;;0.40;0.40;;;13.10;95.10;;;;;;4959682;28;20386;-69
2022/11/17 11:59:07;;;;;;;0.50;0.50;;;13.10;95.00;;;;;;4958692;28;20771;-67
2022/11/17 12:02:04;;;;;;;0.30;0.30;;;13.10;94.00;;;;;;4958845;28;20408;-67
2022/11/17 12:04:39;;;;;;;0.30;0.30;;;13.10;93.80;;;;;;4954693;28;20445;-68
2022/11/17 12:07:18;;;;;;;0.30;0.30;;;13.00;93.70;;;;;;4959447;28;20848;-70
2022/11/17 12:09:52;;;;;;;0.70;0.70;;;12.90;94.80;;;;;;4958789;28;20401;-67
2022/11/17 12:12:24;;;;;;;0.40;0.40;;;12.60;96.70;;;;;;4958767;28;20763;-67
2022/11/17 12:15:11;;;;;;;0.40;0.40;;;12.30;97.40;;;;;;4959157;28;20467;-69
2022/11/17 12:17:53;;;;;;;0.67;0.67;;;12.10;98.10;;;;;;4958536;28;20846;-70
2022/11/17 12:20:41;;;;;;;1.17;0.70;;;12.10;98.50;;;;;;4958640;28;20428;-68
2022/11/17 12:23:31;;;;;;;0.40;0.40;;;12.00;99.00;;;;;;4949883;29;20417;-68
2022/11/17 12:25:58;;;;;;;0.30;0.30;;;11.90;99.50;;;;;;4958333;28;20421;-69
2022/11/17 12:28:34;;;;;;;0.40;0.40;;;11.90;99.50;;;;;;4958390;28;20440;-68
2022/11/17 12:31:45;;;;;;;0.30;0.30;;;12.10;99.90;;;;;;4958523;28;20416;-67
2022/11/17 12:34:25;;;;;;;0.60;0.60;;;12.10;99.90;;;;;;4958291;28;20385;-70
2022/11/17 12:37:13;;;;;;;0.40;0.40;;;12.20;99.90;;;;;;4958514;28;20781;-68
2022/11/17 12:40:05;;;;;;;0.30;0.30;;;12.30;99.90;;;;;;4957977;28;20405;-68
2022/11/17 12:42:33;;;;;;;0.30;0.30;;;12.40;99.90;;;;;;4958840;28;20393;-69
2022/11/17 12:45:05;;;;;;;1.27;0.80;;;12.40;99.90;;;;;;4957003;28;20467;-67
2022/11/17 12:47:45;;;;;;;0.30;0.30;;;12.60;99.90;;;;;;4959254;28;20419;-67
2022/11/17 12:50:27;;;;;;;0.40;0.40;;;12.80;99.90;;;;;;4964350;28;20408;-69
2022/11/17 12:53:18;;;;;;;1.27;1.17;;;12.90;99.90;;;;;;4963101;28;20444;-68
2022/11/17 12:56:34;;;;;;;0.47;0.47;;;13.10;99.70;;;;;;4960101;28;20479;-67
2022/11/17 12:59:24;;;;;;;0.30;0.30;;;13.30;99.60;;;;;;4958024;28;20425;-69
2022/11/17 13:02:19;;;;;;;0.30;0.30;;;13.40;99.50;;;;;;4959254;29;20454;-70
2022/11/17 13:05:06;;;;;;;0.30;0.30;;;13.40;99.10;;;;;;4961581;28;20930;-69
2022/11/17 13:07:32;;;;;;;1.07;0.50;;;13.60;98.20;;;;;;4959283;29;20401;-69
2022/11/17 13:09:59;;;;;;;0.70;0.70;;;13.60;98.20;;;;;;4957781;28;20969;-69
2022/11/17 13:12:24;;;;;;;0.73;0.70;;;13.60;97.10;;;;;;4958196;28;20416;-68
2022/11/17 13:14:55;;;;;;;0.40;0.40;;;13.50;97.20;;;;;;4957576;28;20816;-68
2022/11/17 13:17:39;;;;;;;0.47;0.47;;;13.40;96.10;;;;;;4957880;28;20192;-67
2022/11/17 13:20:26;;;;;;;0.50;0.50;;;13.20;95.70;;;;;;4957490;28;20404;-67
2022/11/17 13:23:17;;;;;;;2.67;0.67;;;12.90;95.60;;;;;;4958255;28;20405;-68
2022/11/17 13:25:43;;;;;;;0.50;0.40;;;12.70;96.00;;;;;;4958186;28;20450;-69
2022/11/17 13:28:29;;;;;;;0.70;0.70;;;12.60;96.00;;;;;;4958306;28;20411;-68
2022/11/17 13:30:56;;;;;;;0.30;0.30;;;12.40;95.50;;;;;;4957743;28;20408;-70
2022/11/17 13:33:23;;;;;;;0.40;0.40;;;12.30;95.60;;;;;;4958175;28;20433;-67
2022/11/17 13:36:23;;;;;;;1.40;0.50;;;12.30;97.00;;;;;;4957374;28;20888;-68
2022/11/17 13:38:51;;;;;;;0.30;0.30;;;12.30;96.90;;;;;;4957135;28;20424;-70
2022/11/17 13:41:19;;;;;;;0.83;0.60;;;12.50;97.50;;;;;;4957066;28;20398;-67
2022/11/17 13:43:46;;;;;;;0.50;0.50;;;12.60;97.10;;;;;;4957070;29;20469;-69